createdAt,value
2023-05-07T00:02:05.073Z,-2.20
2023-05-07T00:04:37.946Z,-2.20
2023-05-07T00:07:05.714Z,-2.20
2023-05-07T00:09:33.213Z,-2.20
2023-05-07T00:12:00.839Z,-2.20
2023-05-07T00:14:28.130Z,-2.20
2023-05-07T00:16:55.294Z,-2.20
2023-05-07T00:19:22.609Z,-2.30
2023-05-07T00:21:49.834Z,-2.40
2023-05-07T00:24:19.965Z,-2.40
2023-05-07T00:26:47.093Z,-2.50
2023-05-07T00:29:14.311Z,-2.50
2023-05-07T00:31:41.664Z,-2.50
2023-05-07T00:34:09.040Z,-2.50
2023-05-07T00:36:36.177Z,-2.50
2023-05-07T00:39:04.726Z,-2.50
2023-05-07T00:41:32.102Z,-2.60
2023-05-07T00:43:59.719Z,-2.70
2023-05-07T00:46:27.213Z,-2.60
2023-05-07T00:48:55.520Z,-2.70
2023-05-07T00:51:23.137Z,-2.70
2023-05-07T00:53:51.439Z,-2.70
2023-05-07T00:56:18.753Z,-2.70
2023-05-07T00:58:46.019Z,-2.70
2023-05-07T01:01:17.768Z,-2.80
2023-05-07T01:03:48.191Z,-2.80
2023-05-07T01:06:18.002Z,-2.70
2023-05-07T01:08:46.075Z,-2.70
2023-05-07T01:11:13.774Z,-2.80
2023-05-07T01:13:42.725Z,-2.70
2023-05-07T01:16:10.994Z,-2.70
2023-05-07T01:18:38.554Z,-2.70
2023-05-07T01:21:06.521Z,-2.70
2023-05-07T01:23:34.819Z,-2.70
2023-05-07T01:26:02.015Z,-2.80
2023-05-07T01:28:29.132Z,-2.80
2023-05-07T01:31:03.009Z,-2.80
2023-05-07T01:33:33.257Z,-2.90
2023-05-07T01:36:07.452Z,-2.90
2023-05-07T01:38:35.317Z,-2.90
2023-05-07T01:41:03.149Z,-3.00
2023-05-07T01:43:31.637Z,-3.00
2023-05-07T01:46:00.098Z,-3.00
2023-05-07T01:48:27.724Z,-3.00
2023-05-07T01:50:55.917Z,-3.00
2023-05-07T01:53:23.032Z,-3.00
2023-05-07T01:55:50.212Z,-3.00
2023-05-07T01:58:17.629Z,-3.00
2023-05-07T02:00:44.785Z,-3.00
2023-05-07T02:03:11.991Z,-3.10
2023-05-07T02:05:39.189Z,-3.10
2023-05-07T02:08:06.453Z,-3.20
2023-05-07T02:10:33.658Z,-3.10
2023-05-07T02:13:03.003Z,-3.20
2023-05-07T02:15:30.390Z,-3.20
2023-05-07T02:18:01.461Z,-3.20
2023-05-07T02:20:29.068Z,-3.20
2023-05-07T02:22:56.203Z,-3.20
2023-05-07T02:25:23.400Z,-3.20
2023-05-07T02:27:50.557Z,-3.20
2023-05-07T02:30:18.056Z,-3.20
2023-05-07T02:32:45.825Z,-3.20
2023-05-07T02:35:13.192Z,-3.20
2023-05-07T02:37:43.140Z,-3.20
2023-05-07T02:40:11.264Z,-3.20
2023-05-07T02:42:39.779Z,-3.20
2023-05-07T02:45:07.526Z,-3.20
2023-05-07T02:47:34.727Z,-3.20
2023-05-07T02:50:01.960Z,-3.20
2023-05-07T02:52:29.096Z,-3.20
2023-05-07T02:54:56.430Z,-3.20
2023-05-07T02:57:23.590Z,-3.20
2023-05-07T02:59:50.836Z,-3.20
2023-05-07T03:02:17.978Z,-3.20
2023-05-07T03:04:45.469Z,-3.20
2023-05-07T03:07:12.583Z,-3.20
2023-05-07T03:09:39.705Z,-3.20
2023-05-07T03:12:07.028Z,-3.20
2023-05-07T03:14:34.545Z,-3.00
2023-05-07T03:17:01.686Z,-3.10
2023-05-07T03:19:28.789Z,-3.00
2023-05-07T03:21:56.601Z,-3.00
2023-05-07T03:24:23.727Z,-3.00
2023-05-07T03:26:51.227Z,-3.00
2023-05-07T03:29:18.337Z,-3.10
2023-05-07T03:31:46.331Z,-3.00
2023-05-07T03:34:15.945Z,-3.00
2023-05-07T03:36:43.147Z,-2.90
2023-05-07T03:39:10.250Z,-2.90
2023-05-07T03:41:37.431Z,-2.80
2023-05-07T03:44:04.737Z,-2.80
2023-05-07T03:46:34.007Z,-2.80
2023-05-07T03:49:04.445Z,-2.70
2023-05-07T03:51:31.718Z,-2.60
2023-05-07T03:53:58.994Z,-2.50
2023-05-07T03:56:27.875Z,-2.40
2023-05-07T03:58:55.481Z,-1.70
2023-05-07T04:01:22.549Z,-1.10
2023-05-07T04:03:49.700Z,-0.70
2023-05-07T04:06:20.021Z,-0.70
2023-05-07T04:08:47.099Z,-0.50
2023-05-07T04:11:14.338Z,-0.40
2023-05-07T04:13:41.444Z,0.50
2023-05-07T04:16:09.045Z,1.90
2023-05-07T04:18:36.203Z,2.70
2023-05-07T04:21:03.463Z,2.90
2023-05-07T04:23:30.621Z,2.50
2023-05-07T04:25:58.450Z,2.20
2023-05-07T04:28:25.718Z,1.90
2023-05-07T04:30:52.895Z,1.60
2023-05-07T04:33:20.138Z,2.10
2023-05-07T04:35:47.329Z,2.40
2023-05-07T04:38:14.531Z,2.70
2023-05-07T04:40:42.298Z,2.90
2023-05-07T04:43:10.226Z,3.00
2023-05-07T04:45:37.930Z,3.20
2023-05-07T04:48:05.659Z,3.20
2023-05-07T04:50:34.751Z,3.60
2023-05-07T04:53:02.327Z,4.10
2023-05-07T04:55:29.583Z,4.10
2023-05-07T04:57:58.070Z,4.30
2023-05-07T05:00:26.319Z,4.60
2023-05-07T05:02:53.550Z,5.00
2023-05-07T05:05:21.144Z,5.60
2023-05-07T05:07:48.399Z,6.20
2023-05-07T05:10:15.749Z,7.00
2023-05-07T05:12:42.902Z,8.30
2023-05-07T05:15:11.538Z,10.00
2023-05-07T05:17:38.762Z,12.10
2023-05-07T05:20:07.053Z,14.40
2023-05-07T05:22:34.499Z,16.80
2023-05-07T05:25:02.318Z,16.40
2023-05-07T05:27:30.313Z,18.80
2023-05-07T05:29:57.494Z,20.00
2023-05-07T05:32:24.742Z,21.00
2023-05-07T05:34:52.130Z,21.60
2023-05-07T05:37:19.458Z,22.40
2023-05-07T05:39:46.774Z,22.20
2023-05-07T05:42:13.923Z,23.50
2023-05-07T05:44:41.047Z,23.40
2023-05-07T05:47:08.258Z,25.10
2023-05-07T05:49:36.208Z,23.90
2023-05-07T05:52:03.473Z,24.00
2023-05-07T05:54:30.678Z,23.80
2023-05-07T05:56:58.252Z,22.40
2023-05-07T05:59:25.937Z,22.80
2023-05-07T06:01:53.245Z,24.80
2023-05-07T06:04:20.371Z,25.00
2023-05-07T06:06:47.431Z,25.30
2023-05-07T06:09:14.574Z,27.00
2023-05-07T06:11:42.174Z,26.00
2023-05-07T06:14:09.488Z,27.20
2023-05-07T06:16:37.319Z,27.20
2023-05-07T06:19:04.771Z,27.70
2023-05-07T06:21:32.461Z,28.30
2023-05-07T06:23:59.710Z,28.50
2023-05-07T06:26:26.880Z,28.50
2023-05-07T06:28:53.983Z,26.00
2023-05-07T06:31:21.788Z,25.30
2023-05-07T06:33:49.958Z,25.00
2023-05-07T06:36:19.420Z,26.40
2023-05-07T06:38:46.637Z,25.30
2023-05-07T06:41:14.016Z,26.10
2023-05-07T06:43:41.196Z,24.80
2023-05-07T06:46:08.552Z,25.00
2023-05-07T06:48:35.657Z,24.40
2023-05-07T06:51:02.998Z,24.10
2023-05-07T06:53:31.777Z,25.20
2023-05-07T06:55:59.021Z,26.50
2023-05-07T06:58:26.156Z,25.60
2023-05-07T07:00:53.283Z,26.30
2023-05-07T07:03:21.064Z,27.40
2023-05-07T07:05:48.192Z,25.00
2023-05-07T07:08:15.814Z,25.10
2023-05-07T07:10:42.972Z,26.20
2023-05-07T07:13:13.250Z,23.30
2023-05-07T07:15:41.252Z,25.30
2023-05-07T07:18:08.451Z,26.90
2023-05-07T07:20:35.876Z,27.30
2023-05-07T07:23:03.136Z,27.40
2023-05-07T07:25:30.438Z,29.50
2023-05-07T07:27:57.865Z,28.50
2023-05-07T07:30:25.085Z,29.50
2023-05-07T07:32:53.729Z,29.90
2023-05-07T07:35:20.875Z,30.50
2023-05-07T07:37:51.810Z,30.90
2023-05-07T07:40:21.991Z,30.80
2023-05-07T07:42:49.102Z,28.60
2023-05-07T07:45:16.261Z,28.70
2023-05-07T07:47:43.723Z,28.10
2023-05-07T07:50:12.344Z,27.10
2023-05-07T07:52:42.071Z,26.70
2023-05-07T07:55:12.073Z,27.90
2023-05-07T07:57:39.250Z,26.80
2023-05-07T08:00:08.483Z,24.70
2023-05-07T08:02:36.037Z,25.90
2023-05-07T08:05:03.321Z,26.50
2023-05-07T08:07:31.495Z,25.30
2023-05-07T08:09:58.766Z,26.60
2023-05-07T08:12:26.878Z,25.40
2023-05-07T08:14:53.980Z,24.30
2023-05-07T08:17:23.459Z,25.30
2023-05-07T08:19:50.851Z,25.00
2023-05-07T08:22:19.602Z,27.10
2023-05-07T08:24:46.750Z,27.90
2023-05-07T08:27:14.177Z,27.00
2023-05-07T08:29:41.286Z,27.00
2023-05-07T08:32:08.633Z,25.20
2023-05-07T08:34:36.068Z,24.70
2023-05-07T08:37:04.543Z,25.50
2023-05-07T08:39:32.025Z,23.90
2023-05-07T08:42:03.544Z,22.00
2023-05-07T08:44:34.607Z,23.10
2023-05-07T08:47:02.992Z,22.40
2023-05-07T08:49:30.271Z,21.50
2023-05-07T08:51:57.738Z,19.70
2023-05-07T08:54:27.025Z,18.40
2023-05-07T08:56:54.216Z,17.80
2023-05-07T08:59:21.534Z,18.10
2023-05-07T09:01:48.684Z,16.80
2023-05-07T09:04:16.085Z,16.20
2023-05-07T09:06:43.336Z,16.10
2023-05-07T09:09:10.472Z,16.00
2023-05-07T09:11:37.616Z,15.70
2023-05-07T09:14:05.924Z,16.50
2023-05-07T09:16:33.775Z,16.50
2023-05-07T09:19:02.200Z,15.40
2023-05-07T09:21:29.324Z,15.50
2023-05-07T09:23:57.322Z,15.90
2023-05-07T09:26:25.914Z,15.50
2023-05-07T09:28:53.342Z,15.60
2023-05-07T09:31:21.737Z,15.80
2023-05-07T09:33:49.095Z,15.80
2023-05-07T09:36:20.157Z,15.60
2023-05-07T09:38:52.279Z,14.50
2023-05-07T09:41:20.479Z,14.80
2023-05-07T09:43:54.605Z,14.80
2023-05-07T09:46:29.226Z,15.00
2023-05-07T09:48:59.739Z,15.20
2023-05-07T09:51:39.466Z,15.40
2023-05-07T09:54:07.760Z,14.60
2023-05-07T09:56:35.345Z,14.90
2023-05-07T09:59:04.233Z,14.70
2023-05-07T10:01:33.221Z,14.80
2023-05-07T10:04:00.868Z,14.80
2023-05-07T10:06:28.964Z,15.00
2023-05-07T10:08:57.559Z,15.10
2023-05-07T10:11:24.741Z,15.30
2023-05-07T10:13:54.109Z,14.10
2023-05-07T10:16:26.487Z,14.70
2023-05-07T10:18:55.578Z,15.10
2023-05-07T10:21:24.853Z,14.80
2023-05-07T10:23:59.601Z,15.00
2023-05-07T10:26:29.129Z,14.90
2023-05-07T10:29:05.066Z,14.50
2023-05-07T10:31:44.006Z,14.20
2023-05-07T10:34:21.059Z,14.10
2023-05-07T10:36:49.605Z,14.40
2023-05-07T10:39:17.114Z,14.20
2023-05-07T10:41:44.361Z,14.60
2023-05-07T10:44:11.593Z,14.70
2023-05-07T10:46:38.905Z,13.70
2023-05-07T10:49:08.902Z,14.00
2023-05-07T10:51:36.923Z,13.80
2023-05-07T10:54:13.436Z,14.00
2023-05-07T10:56:44.360Z,14.30
2023-05-07T10:59:31.869Z,14.70
2023-05-07T11:02:00.261Z,15.00
2023-05-07T11:04:32.712Z,14.80
2023-05-07T11:07:26.364Z,14.40
2023-05-07T11:09:53.497Z,14.40
2023-05-07T11:12:39.454Z,14.50
2023-05-07T11:15:08.832Z,15.00
2023-05-07T11:17:53.009Z,15.00
2023-05-07T11:20:20.833Z,15.00
2023-05-07T11:22:50.954Z,14.30
2023-05-07T11:25:21.212Z,14.20
2023-05-07T11:27:48.652Z,13.70
2023-05-07T11:30:20.072Z,14.30
2023-05-07T11:32:49.914Z,14.60
2023-05-07T11:35:17.863Z,15.00
2023-05-07T11:37:46.892Z,14.90
2023-05-07T11:40:15.202Z,14.70
2023-05-07T11:42:45.915Z,14.50
2023-05-07T11:45:13.338Z,14.50
2023-05-07T11:47:43.203Z,14.60
2023-05-07T11:50:11.660Z,14.70
2023-05-07T11:52:40.333Z,14.60
2023-05-07T11:55:09.182Z,14.70
2023-05-07T11:57:36.493Z,14.70
2023-05-07T12:00:05.749Z,14.80
2023-05-07T12:02:36.199Z,14.70
2023-05-07T12:05:03.743Z,14.10
2023-05-07T12:07:30.932Z,14.20
2023-05-07T12:09:58.090Z,14.50
2023-05-07T12:12:25.269Z,14.60
2023-05-07T12:14:53.368Z,14.10
2023-05-07T12:17:21.084Z,14.00
2023-05-07T12:19:48.702Z,14.40
2023-05-07T12:22:16.298Z,14.80
2023-05-07T12:24:57.544Z,14.70
2023-05-07T12:27:25.060Z,14.70
2023-05-07T12:29:52.489Z,15.00
2023-05-07T12:32:23.221Z,14.50
2023-05-07T12:34:53.535Z,14.80
2023-05-07T12:37:26.307Z,14.80
2023-05-07T12:40:10.175Z,14.90
2023-05-07T12:42:38.453Z,14.50
2023-05-07T12:45:13.325Z,14.40
2023-05-07T12:47:44.502Z,14.40
2023-05-07T12:50:12.615Z,14.40
2023-05-07T12:52:39.931Z,14.20
2023-05-07T12:55:07.915Z,14.60
2023-05-07T12:57:53.937Z,14.80
2023-05-07T13:00:39.953Z,14.60
2023-05-07T13:03:07.282Z,14.50
2023-05-07T13:05:34.885Z,14.50
2023-05-07T13:08:02.116Z,14.80
2023-05-07T13:10:30.144Z,14.70
2023-05-07T13:12:57.403Z,14.80
2023-05-07T13:15:24.604Z,14.40
2023-05-07T13:17:51.860Z,14.10
2023-05-07T13:20:19.931Z,14.00
2023-05-07T13:22:47.121Z,14.50
2023-05-07T13:25:14.749Z,14.70
2023-05-07T13:27:42.385Z,14.80
2023-05-07T13:30:09.756Z,14.60
2023-05-07T13:32:37.133Z,14.70
2023-05-07T13:35:07.148Z,14.60
2023-05-07T13:37:34.389Z,14.80
2023-05-07T13:40:04.011Z,14.80
2023-05-07T13:42:32.237Z,14.70
2023-05-07T13:44:59.677Z,14.50
2023-05-07T13:47:27.398Z,14.40
2023-05-07T13:49:54.658Z,14.70
2023-05-07T13:52:21.931Z,14.60
2023-05-07T13:54:49.074Z,14.90
2023-05-07T13:57:16.333Z,14.90
2023-05-07T13:59:44.080Z,14.50
2023-05-07T14:02:11.465Z,13.90
2023-05-07T14:04:39.043Z,13.70
2023-05-07T14:07:06.396Z,13.90
2023-05-07T14:09:33.541Z,13.70
2023-05-07T14:12:01.685Z,14.00
2023-05-07T14:14:29.293Z,14.20
2023-05-07T14:16:56.713Z,14.10
2023-05-07T14:19:24.531Z,14.10
2023-05-07T14:21:51.739Z,13.80
2023-05-07T14:24:30.835Z,13.60
2023-05-07T14:27:04.594Z,13.50
2023-05-07T14:29:31.701Z,13.80
2023-05-07T14:31:58.906Z,13.70
2023-05-07T14:34:26.201Z,13.60
2023-05-07T14:36:53.481Z,13.60
2023-05-07T14:39:21.025Z,13.80
2023-05-07T14:41:48.637Z,13.50
2023-05-07T14:44:16.013Z,13.50
2023-05-07T14:46:43.286Z,13.20
2023-05-07T14:49:18.109Z,13.10
2023-05-07T14:51:49.775Z,12.80
2023-05-07T14:54:17.317Z,12.90
2023-05-07T14:56:44.888Z,12.90
2023-05-07T14:59:12.599Z,13.00
2023-05-07T15:01:43.861Z,13.00
2023-05-07T15:04:11.331Z,13.20
2023-05-07T15:06:38.764Z,13.10
2023-05-07T15:09:06.232Z,13.20
2023-05-07T15:11:36.467Z,13.10
2023-05-07T15:14:03.683Z,12.90
2023-05-07T15:16:31.067Z,12.90
2023-05-07T15:18:58.389Z,13.00
2023-05-07T15:21:27.897Z,12.80
2023-05-07T15:23:55.214Z,12.90
2023-05-07T15:26:22.805Z,12.80
2023-05-07T15:28:50.039Z,13.00
2023-05-07T15:31:18.132Z,13.00
2023-05-07T15:33:45.764Z,13.20
2023-05-07T15:36:13.062Z,13.30
2023-05-07T15:38:40.195Z,13.40
2023-05-07T15:41:07.443Z,13.30
2023-05-07T15:43:34.991Z,13.10
2023-05-07T15:46:02.218Z,12.70
2023-05-07T15:48:30.003Z,12.80
2023-05-07T15:50:57.188Z,12.70
2023-05-07T15:53:25.122Z,12.60
2023-05-07T15:55:53.866Z,12.60
2023-05-07T15:58:21.490Z,12.50
2023-05-07T16:00:49.932Z,12.20
2023-05-07T16:03:19.231Z,12.10
2023-05-07T16:05:46.478Z,12.20
2023-05-07T16:08:13.933Z,12.10
2023-05-07T16:10:41.148Z,12.20
2023-05-07T16:13:08.382Z,12.30
2023-05-07T16:15:36.226Z,12.40
2023-05-07T16:18:04.415Z,12.30
2023-05-07T16:20:35.041Z,12.30
2023-05-07T16:23:03.135Z,12.10
2023-05-07T16:25:30.917Z,12.10
2023-05-07T16:27:58.214Z,12.20
2023-05-07T16:30:25.505Z,12.00
2023-05-07T16:32:52.721Z,12.00
2023-05-07T16:35:20.066Z,11.80
2023-05-07T16:37:47.274Z,11.80
2023-05-07T16:40:14.581Z,11.90
2023-05-07T16:42:41.919Z,11.70
2023-05-07T16:45:09.882Z,11.70
2023-05-07T16:47:37.355Z,11.60
2023-05-07T16:50:05.923Z,11.40
2023-05-07T16:52:33.573Z,11.50
2023-05-07T16:55:01.721Z,11.40
2023-05-07T16:57:30.837Z,11.20
2023-05-07T17:00:00.663Z,11.10
2023-05-07T17:02:28.645Z,11.00
2023-05-07T17:04:56.114Z,10.90
2023-05-07T17:07:25.793Z,11.00
2023-05-07T17:09:53.228Z,11.00
2023-05-07T17:12:23.105Z,10.90
2023-05-07T17:14:50.286Z,10.70
2023-05-07T17:17:17.392Z,10.60
2023-05-07T17:19:44.767Z,10.60
2023-05-07T17:22:13.009Z,10.50
2023-05-07T17:24:40.117Z,10.60
2023-05-07T17:27:07.389Z,10.50
2023-05-07T17:29:34.694Z,10.40
2023-05-07T17:32:02.075Z,10.40
2023-05-07T17:34:29.469Z,10.40
2023-05-07T17:36:57.588Z,10.20
2023-05-07T17:39:25.169Z,10.00
2023-05-07T17:41:52.721Z,10.10
2023-05-07T17:44:21.225Z,9.90
2023-05-07T17:46:48.439Z,9.90
2023-05-07T17:49:18.397Z,9.90
2023-05-07T17:51:54.174Z,9.70
2023-05-07T17:54:28.863Z,9.60
2023-05-07T17:56:56.107Z,9.50
2023-05-07T17:59:23.247Z,9.40
2023-05-07T18:01:50.645Z,9.30
2023-05-07T18:04:19.573Z,9.40
2023-05-07T18:06:46.893Z,9.40
2023-05-07T18:09:16.964Z,9.30
2023-05-07T18:11:44.154Z,9.30
2023-05-07T18:14:11.271Z,9.10
2023-05-07T18:16:41.160Z,9.10
2023-05-07T18:19:08.631Z,9.00
2023-05-07T18:21:35.803Z,9.00
2023-05-07T18:24:03.003Z,9.00
2023-05-07T18:26:30.340Z,8.90
2023-05-07T18:28:57.641Z,8.80
2023-05-07T18:31:25.172Z,8.60
2023-05-07T18:33:53.376Z,8.50
2023-05-07T18:36:20.568Z,8.40
2023-05-07T18:38:47.737Z,8.30
2023-05-07T18:41:15.084Z,8.30
2023-05-07T18:43:42.599Z,8.20
2023-05-07T18:46:09.911Z,8.10
2023-05-07T18:48:37.157Z,7.90
2023-05-07T18:51:04.444Z,7.90
2023-05-07T18:53:31.865Z,7.80
2023-05-07T18:56:00.338Z,7.70
2023-05-07T18:58:27.730Z,7.60
2023-05-07T19:00:55.467Z,7.50
2023-05-07T19:03:22.696Z,7.40
2023-05-07T19:05:49.895Z,7.30
2023-05-07T19:08:17.071Z,7.30
2023-05-07T19:10:45.336Z,7.20
2023-05-07T19:13:13.520Z,7.20
2023-05-07T19:15:42.858Z,7.00
2023-05-07T19:18:10.309Z,6.90
2023-05-07T19:20:37.678Z,6.80
2023-05-07T19:23:06.957Z,6.60
2023-05-07T19:25:34.055Z,6.50
2023-05-07T19:28:04.180Z,6.30
2023-05-07T19:30:31.554Z,6.20
2023-05-07T19:33:02.266Z,6.20
2023-05-07T19:35:29.445Z,6.10
2023-05-07T19:37:58.592Z,6.10
2023-05-07T19:40:29.277Z,5.90
2023-05-07T19:42:56.395Z,5.90
2023-05-07T19:45:23.652Z,5.80
2023-05-07T19:47:51.316Z,5.70
2023-05-07T19:50:18.906Z,5.60
2023-05-07T19:52:46.084Z,5.50
2023-05-07T19:55:13.571Z,5.50
2023-05-07T19:57:41.091Z,5.40
2023-05-07T20:00:08.963Z,5.30
2023-05-07T20:02:38.020Z,5.10
2023-05-07T20:05:05.546Z,5.00
2023-05-07T20:07:32.824Z,5.00
2023-05-07T20:10:00.072Z,5.00
2023-05-07T20:12:27.271Z,4.90
2023-05-07T20:14:54.648Z,4.90
2023-05-07T20:17:21.941Z,4.80
2023-05-07T20:19:49.099Z,4.80
2023-05-07T20:22:16.397Z,4.80
2023-05-07T20:24:43.643Z,4.70
2023-05-07T20:27:10.986Z,4.60
2023-05-07T20:29:38.085Z,4.60
2023-05-07T20:32:05.578Z,4.50
2023-05-07T20:34:32.779Z,4.50
2023-05-07T20:37:00.456Z,4.40
2023-05-07T20:39:27.657Z,4.20
2023-05-07T20:41:54.922Z,4.20
2023-05-07T20:44:22.786Z,4.10
2023-05-07T20:46:50.386Z,4.00
2023-05-07T20:49:17.558Z,3.90
2023-05-07T20:51:44.831Z,3.90
2023-05-07T20:54:13.126Z,3.80
2023-05-07T20:56:40.317Z,3.70
2023-05-07T20:59:07.501Z,3.60
2023-05-07T21:01:35.220Z,3.50
2023-05-07T21:04:03.012Z,3.30
2023-05-07T21:06:30.419Z,3.30
2023-05-07T21:08:57.694Z,3.30
2023-05-07T21:11:24.999Z,3.20
2023-05-07T21:13:52.984Z,3.10
2023-05-07T21:16:21.756Z,3.00
2023-05-07T21:18:49.425Z,2.90
2023-05-07T21:21:16.727Z,3.00
2023-05-07T21:23:43.867Z,3.00
2023-05-07T21:26:17.434Z,2.90
2023-05-07T21:28:44.599Z,2.90
2023-05-07T21:31:12.369Z,2.80
2023-05-07T21:33:39.936Z,2.70
2023-05-07T21:36:07.452Z,2.70
2023-05-07T21:38:35.749Z,2.70
2023-05-07T21:41:03.086Z,2.70
2023-05-07T21:43:30.487Z,2.60
2023-05-07T21:45:59.284Z,2.60
2023-05-07T21:48:27.067Z,2.50
2023-05-07T21:51:02.573Z,2.50
2023-05-07T21:53:30.724Z,2.40
2023-05-07T21:56:00.273Z,2.50
2023-05-07T21:58:27.544Z,2.40
2023-05-07T22:00:54.820Z,2.40
2023-05-07T22:03:25.020Z,2.30
2023-05-07T22:05:52.245Z,2.30
2023-05-07T22:08:19.393Z,2.30
2023-05-07T22:10:46.843Z,2.30
2023-05-07T22:13:13.997Z,2.30
2023-05-07T22:15:53.230Z,2.20
2023-05-07T22:18:23.690Z,2.20
2023-05-07T22:20:52.161Z,2.10
2023-05-07T22:23:19.314Z,2.10
2023-05-07T22:25:46.609Z,2.10
2023-05-07T22:28:13.877Z,2.10
2023-05-07T22:30:44.086Z,2.00
2023-05-07T22:33:11.362Z,2.00
2023-05-07T22:35:38.612Z,2.00
2023-05-07T22:38:05.785Z,1.90
2023-05-07T22:40:32.933Z,1.80
2023-05-07T22:42:59.991Z,1.80
2023-05-07T22:45:27.156Z,1.80
2023-05-07T22:47:54.471Z,1.70
2023-05-07T22:50:21.713Z,1.70
2023-05-07T22:52:49.661Z,1.60
2023-05-07T22:55:16.922Z,1.60
2023-05-07T22:57:44.100Z,1.60
2023-05-07T23:00:12.368Z,1.60
2023-05-07T23:02:39.878Z,1.50
2023-05-07T23:05:07.748Z,1.50
2023-05-07T23:07:34.876Z,1.50
2023-05-07T23:10:02.038Z,1.40
2023-05-07T23:12:29.149Z,1.40
2023-05-07T23:14:56.438Z,1.30
2023-05-07T23:17:23.956Z,1.30
2023-05-07T23:19:51.404Z,1.30
2023-05-07T23:22:18.680Z,1.30
2023-05-07T23:24:45.923Z,1.20
2023-05-07T23:27:13.135Z,1.20
2023-05-07T23:29:42.941Z,1.10
2023-05-07T23:32:10.089Z,1.10
2023-05-07T23:34:37.133Z,1.00
2023-05-07T23:37:04.492Z,1.00
2023-05-07T23:39:31.733Z,1.00
2023-05-07T23:41:58.866Z,1.00
2023-05-07T23:44:25.980Z,0.90
2023-05-07T23:46:53.376Z,0.90
2023-05-07T23:49:20.603Z,0.90
2023-05-07T23:51:47.799Z,0.80
2023-05-07T23:54:15.417Z,0.80
2023-05-07T23:56:43.213Z,0.70
2023-05-07T23:59:10.491Z,0.70
